Time;durP1;ratioP1;P1;durP2;ratioP2;P2;SDS_P1;SDS_P2;PMS_P1;PMS_P2;Temp;Humidity;BMP_temperature;BMP_pressure;BME280_temperature;BME280_humidity;BME280_pressure;Samples;Min_cycle;Max_cycle;Signal;HPM_P1;HPM_P2
2020/12/09 00:02:18;;;;;;;50.35;23.92;;;;;;;0.06;72.12;100861.59;1674534;83;27649;-78
2020/12/09 00:04:46;;;;;;;43.75;21.52;;;;;;;0.06;72.03;100855.02;1658582;83;26010;-78
2020/12/09 00:07:14;;;;;;;53.63;25.40;;;;;;;0.03;72.12;100852.59;1651203;83;25531;-79
2020/12/09 00:09:41;;;;;;;52.40;23.65;;;;;;;0.02;72.06;100856.67;1658696;83;26427;-79
2020/12/09 00:12:08;;;;;;;54.25;23.92;;;;;;;0.00;72.04;100857.61;1671030;83;26427;-78
2020/12/09 00:14:36;;;;;;;47.30;23.52;;;;;;;-0.03;72.04;100860.48;1632643;84;27330;-78
2020/12/09 00:17:03;;;;;;;52.50;24.57;;;;;;;-0.05;72.11;100861.55;1627806;84;26406;-79
2020/12/09 00:19:30;;;;;;;60.65;26.42;;;;;;;-0.02;72.24;100860.83;1634252;86;25894;-79
2020/12/09 00:21:58;;;;;;;52.38;25.35;;;;;;;-0.02;72.25;100859.52;1676939;83;25943;-78
2020/12/09 00:24:25;;;;;;;54.05;25.55;;;;;;;-0.05;72.17;100865.03;1657026;85;26447;-79
2020/12/09 00:26:52;;;;;;;54.05;24.60;;;;;;;-0.06;72.12;100862.02;1655161;84;28567;-78
2020/12/09 00:29:20;;;;;;;53.13;24.05;;;;;;;-0.09;72.06;100869.31;1639524;83;25740;-78
2020/12/09 00:31:47;;;;;;;55.08;25.55;;;;;;;-0.11;72.14;100868.58;1669955;83;25711;-79
2020/12/09 00:34:15;;;;;;;58.98;25.50;;;;;;;-0.14;72.10;100870.95;1640264;83;26450;-78
2020/12/09 00:36:42;;;;;;;51.55;22.60;;;;;;;-0.16;72.12;100869.38;1632406;86;26081;-78
2020/12/09 00:39:10;;;;;;;54.18;24.72;;;;;;;-0.19;72.12;100865.64;1645065;83;28234;-79
2020/12/09 00:41:37;;;;;;;52.70;24.67;;;;;;;-0.23;72.13;100865.04;1651390;83;26121;-79
2020/12/09 00:44:04;;;;;;;52.23;23.83;;;;;;;-0.25;72.19;100860.83;1650417;84;25814;-79
2020/12/09 00:46:32;;;;;;;53.55;25.77;;;;;;;-0.27;72.19;100863.59;1666838;84;25833;-78
2020/12/09 00:49:01;;;;;;;48.00;21.70;;;;;;;-0.29;72.26;100863.33;1650222;83;25936;-78
2020/12/09 00:51:29;;;;;;;47.90;22.50;;;;;;;-0.30;72.26;100862.98;1660042;83;28511;-78
2020/12/09 00:53:57;;;;;;;55.03;26.02;;;;;;;-0.33;72.31;100857.92;1647149;83;26577;-77
2020/12/09 00:56:26;;;;;;;53.63;25.23;;;;;;;-0.32;72.33;100859.12;1661227;83;25766;-79
2020/12/09 00:58:54;;;;;;;52.13;24.90;;;;;;;-0.32;72.40;100862.25;1636925;83;25766;-78
2020/12/09 01:01:23;;;;;;;60.70;25.50;;;;;;;-0.30;72.34;100849.82;1638225;84;26439;-78
2020/12/09 01:03:52;;;;;;;52.90;25.97;;;;;;;-0.30;72.22;100856.40;1674928;84;28395;-78
2020/12/09 01:06:20;;;;;;;54.00;25.25;;;;;;;-0.32;72.28;100852.54;1685033;83;26076;-79
2020/12/09 01:08:47;;;;;;;47.58;21.50;;;;;;;-0.34;72.31;100851.00;1663771;83;25778;-79
2020/12/09 01:11:16;;;;;;;51.53;23.57;;;;;;;-0.35;72.29;100856.73;1647449;83;25718;-78
2020/12/09 01:13:44;;;;;;;52.55;24.60;;;;;;;-0.38;72.27;100850.36;1660248;83;25986;-78
2020/12/09 01:16:17;;;;;;;42.93;19.90;;;;;;;-0.39;72.40;100850.48;1666579;83;28284;-78
2020/12/09 01:18:45;;;;;;;50.78;23.02;;;;;;;-0.41;72.33;100849.28;1668587;83;25828;-78
2020/12/09 01:21:12;;;;;;;55.83;23.80;;;;;;;-0.42;72.46;100855.48;1662535;83;26572;-79
2020/12/09 01:23:39;;;;;;;51.20;25.05;;;;;;;-0.41;72.49;100857.17;1676326;83;25922;-78
2020/12/09 01:26:11;;;;;;;51.40;23.12;;;;;;;-0.41;72.50;100852.38;1649791;84;25910;-78
2020/12/09 01:28:38;;;;;;;54.20;25.05;;;;;;;-0.38;72.59;100856.09;1651292;84;27612;-79
2020/12/09 01:31:06;;;;;;;47.60;21.77;;;;;;;-0.37;72.55;100852.52;1640239;84;25817;-78
2020/12/09 01:33:33;;;;;;;52.95;24.40;;;;;;;-0.35;72.54;100862.46;1651494;85;25906;-78
2020/12/09 01:36:01;;;;;;;55.15;25.90;;;;;;;-0.36;72.53;100859.45;1660802;84;26261;-78
2020/12/09 01:38:28;;;;;;;47.15;23.40;;;;;;;-0.35;72.48;100871.20;1664346;83;25747;-78
2020/12/09 01:40:56;;;;;;;50.00;23.47;;;;;;;-0.35;72.38;100869.05;1662734;85;27608;-78
2020/12/09 01:43:23;;;;;;;52.55;25.00;;;;;;;-0.34;72.40;100874.19;1660924;83;25467;-78
2020/12/09 01:45:51;;;;;;;43.23;22.17;;;;;;;-0.35;72.25;100874.30;1646706;83;25803;-79
2020/12/09 01:48:18;;;;;;;45.98;22.13;;;;;;;-0.37;72.35;100870.48;1655073;83;26778;-78
2020/12/09 01:50:46;;;;;;;45.73;23.10;;;;;;;-0.37;72.36;100868.31;1661523;83;25893;-79
2020/12/09 01:53:13;;;;;;;49.03;24.72;;;;;;;-0.38;72.29;100866.15;1668098;83;27610;-79
2020/12/09 01:55:41;;;;;;;44.00;20.77;;;;;;;-0.38;72.15;100867.94;1653482;83;25899;-79
2020/12/09 01:58:08;;;;;;;41.83;17.87;;;;;;;-0.42;72.00;100869.95;1609806;83;26525;-78
2020/12/09 02:00:35;;;;;;;49.00;22.75;;;;;;;-0.47;72.06;100860.23;1653043;85;26417;-78
2020/12/09 02:03:03;;;;;;;49.60;20.72;;;;;;;-0.50;72.10;100862.25;1652085;84;25804;-79
2020/12/09 02:05:33;;;;;;;53.05;25.27;;;;;;;-0.54;71.95;100859.48;1632572;85;27341;-79
2020/12/09 02:08:00;;;;;;;48.05;23.98;;;;;;;-0.59;71.91;100866.84;1651064;83;25820;-79
2020/12/09 02:10:27;;;;;;;50.52;23.57;;;;;;;-0.64;71.97;100865.85;1642980;84;26198;-79
2020/12/09 02:12:55;;;;;;;50.05;24.15;;;;;;;-0.66;71.98;100869.56;1662590;83;26314;-79
2020/12/09 02:15:22;;;;;;;50.00;22.62;;;;;;;-0.71;72.00;100866.41;1643763;84;25860;-79
2020/12/09 02:17:50;;;;;;;44.15;22.02;;;;;;;-0.75;72.11;100871.06;1648568;83;27617;-79
2020/12/09 02:20:17;;;;;;;48.25;24.40;;;;;;;-0.75;72.12;100876.32;1643490;86;26531;-78
2020/12/09 02:22:55;;;;;;;58.73;24.90;;;;;;;-0.76;72.21;100869.36;1662882;83;26519;-78
2020/12/09 02:25:23;;;;;;;56.50;27.05;;;;;;;-0.77;72.15;100872.46;1640123;84;26447;-78
2020/12/09 02:27:50;;;;;;;51.30;25.50;;;;;;;-0.80;72.16;100872.70;1642373;83;25912;-79
2020/12/09 02:30:17;;;;;;;51.55;23.30;;;;;;;-0.80;72.23;100873.16;1663745;83;27555;-78
2020/12/09 02:32:45;;;;;;;53.42;24.92;;;;;;;-0.82;72.22;100874.59;1649699;83;25839;-78
2020/12/09 02:35:12;;;;;;;48.60;21.42;;;;;;;-0.84;72.23;100875.64;1656204;83;25350;-78
2020/12/09 02:37:39;;;;;;;45.90;22.62;;;;;;;-0.88;72.20;100863.16;1628132;86;26369;-78
2020/12/09 02:40:07;;;;;;;52.00;25.75;;;;;;;-0.91;72.23;100860.77;1684032;83;25939;-79
2020/12/09 02:42:34;;;;;;;51.02;24.20;;;;;;;-0.95;72.29;100861.09;1651433;85;27242;-78
2020/12/09 02:45:01;;;;;;;47.48;22.58;;;;;;;-0.96;72.29;100868.59;1631853;86;26636;-78
2020/12/09 02:47:29;;;;;;;44.48;22.42;;;;;;;-0.98;72.38;100871.80;1638404;86;26617;-78
2020/12/09 02:49:56;;;;;;;47.43;22.42;;;;;;;-1.03;72.38;100873.94;1686020;83;25549;-78
2020/12/09 02:52:24;;;;;;;51.77;23.75;;;;;;;-1.04;72.51;100872.23;1661556;83;26146;-78
2020/12/09 02:54:51;;;;;;;51.77;23.55;;;;;;;-1.05;72.50;100872.70;1626609;83;27412;-78
2020/12/09 02:57:19;;;;;;;47.78;22.67;;;;;;;-1.07;72.47;100871.97;1631952;86;25923;-78
2020/12/09 02:59:46;;;;;;;46.70;22.82;;;;;;;-1.08;72.48;100875.56;1634614;84;25764;-80
2020/12/09 03:02:13;;;;;;;54.80;26.25;;;;;;;-1.09;72.44;100880.44;1652389;84;26123;-78
2020/12/09 03:04:41;;;;;;;51.08;24.47;;;;;;;-1.11;72.54;100881.02;1662261;83;25708;-78
2020/12/09 03:07:08;;;;;;;46.75;22.37;;;;;;;-1.09;72.54;100878.30;1634849;84;27547;-78
2020/12/09 03:09:36;;;;;;;49.35;21.57;;;;;;;-1.08;72.35;100883.91;1669835;84;25828;-78
2020/12/09 03:12:03;;;;;;;47.23;22.45;;;;;;;-1.11;72.38;100879.70;1659941;83;25970;-79
2020/12/09 03:14:30;;;;;;;49.45;23.55;;;;;;;-1.14;72.40;100875.14;1645264;83;25958;-79
2020/12/09 03:16:58;;;;;;;60.60;24.10;;;;;;;-1.13;72.49;100876.34;1654414;83;25854;-78
2020/12/09 03:19:25;;;;;;;50.33;22.95;;;;;;;-1.12;72.42;100873.25;1663429;84;27585;-78
2020/12/09 03:21:52;;;;;;;50.58;25.20;;;;;;;-1.15;72.49;100873.45;1659543;83;25970;-78
2020/12/09 03:24:20;;;;;;;48.70;21.02;;;;;;;-1.15;72.49;100873.45;1646463;83;25866;-78
2020/12/09 03:26:47;;;;;;;55.88;24.92;;;;;;;-1.20;72.48;100871.63;1646202;85;25856;-78
2020/12/09 03:29:14;;;;;;;43.35;21.57;;;;;;;-1.20;72.48;100871.63;1648922;84;25845;-78
2020/12/09 03:31:43;;;;;;;50.78;23.30;;;;;;;-1.25;72.46;100864.05;1658558;83;28267;-78
2020/12/09 03:34:11;;;;;;;45.60;22.98;;;;;;;-1.22;72.57;100869.58;1645602;84;26404;-79
2020/12/09 03:36:38;;;;;;;39.83;19.73;;;;;;;-1.22;72.57;100869.58;1668813;83;25819;-79
2020/12/09 03:39:05;;;;;;;43.52;21.55;;;;;;;-1.24;72.43;100868.84;1678810;83;26013;-78
2020/12/09 03:41:33;;;;;;;50.23;21.68;;;;;;;-1.27;72.49;100858.53;1665276;83;25832;-78
2020/12/09 03:44:00;;;;;;;52.17;22.25;;;;;;;-1.28;72.54;100851.11;1640268;84;28428;-78
2020/12/09 03:46:27;;;;;;;51.20;26.75;;;;;;;-1.28;72.62;100851.61;1640099;84;26489;-78
2020/12/09 03:48:55;;;;;;;49.13;23.55;;;;;;;-1.33;72.54;100845.82;1679049;83;25772;-78
2020/12/09 03:51:22;;;;;;;43.55;21.70;;;;;;;-1.32;72.19;100858.84;1663676;83;25463;-78
2020/12/09 03:53:49;;;;;;;48.17;25.68;;;;;;;-1.32;72.19;100858.84;1640487;83;25795;-78
2020/12/09 03:56:17;;;;;;;41.85;21.05;;;;;;;-1.33;72.63;100856.33;1645073;84;27547;-78
2020/12/09 03:58:44;;;;;;;42.65;20.30;;;;;;;-1.38;72.56;100854.02;1675022;84;25861;-78
2020/12/09 04:01:12;;;;;;;37.00;17.65;;;;;;;-1.44;72.57;100850.50;1644279;86;26465;-79
2020/12/09 04:03:39;;;;;;;43.60;23.30;;;;;;;-1.44;72.57;100850.50;1653207;84;25923;-78
2020/12/09 04:06:06;;;;;;;53.38;27.00;;;;;;;-1.39;72.67;100851.50;1637188;86;25973;-79
2020/12/09 04:08:34;;;;;;;53.30;29.27;;;;;;;-1.38;72.68;100855.33;1648484;86;27615;-79
2020/12/09 04:11:01;;;;;;;46.10;21.62;;;;;;;-1.35;72.63;100860.39;1655319;83;25833;-79
2020/12/09 04:13:28;;;;;;;43.60;19.57;;;;;;;-1.36;72.54;100860.00;1665954;83;25709;-79
2020/12/09 04:15:56;;;;;;;47.60;24.82;;;;;;;-1.39;72.56;100854.13;1642467;83;25884;-78
2020/12/09 04:18:23;;;;;;;44.60;21.57;;;;;;;-1.42;72.57;100857.80;1642723;83;26142;-78
2020/12/09 04:20:50;;;;;;;51.50;25.40;;;;;;;-1.43;72.47;100852.16;1659957;83;27385;-79
2020/12/09 04:23:18;;;;;;;51.60;23.73;;;;;;;-1.50;72.52;100844.35;1658399;83;25880;-78
2020/12/09 04:25:45;;;;;;;52.33;24.40;;;;;;;-1.50;72.52;100844.35;1639318;86;25808;-78
2020/12/09 04:28:12;;;;;;;47.40;20.27;;;;;;;-1.44;72.55;100852.27;1659874;84;25851;-78
2020/12/09 04:30:40;;;;;;;52.78;24.98;;;;;;;-1.51;72.50;100841.34;1626620;85;25953;-79
2020/12/09 04:33:07;;;;;;;48.75;21.07;;;;;;;-1.47;72.49;100846.75;1646866;83;27619;-79
2020/12/09 04:35:35;;;;;;;50.40;22.17;;;;;;;-1.49;72.51;100853.05;1678820;84;25807;-78
2020/12/09 04:38:03;;;;;;;39.58;19.98;;;;;;;-1.50;72.54;100853.55;1659798;84;25866;-78
2020/12/09 04:40:30;;;;;;;42.70;21.07;;;;;;;-1.52;72.57;100858.53;1664002;83;26593;-78
2020/12/09 04:43:00;;;;;;;39.40;19.17;;;;;;;-1.56;72.62;100856.09;1641707;84;26142;-78
2020/12/09 04:45:30;;;;;;;43.53;22.70;;;;;;;-1.57;72.68;100858.84;1662904;85;27486;-79
2020/12/09 04:48:08;;;;;;;40.38;19.55;;;;;;;-1.58;72.78;100855.36;1655434;84;26085;-78
2020/12/09 04:51:01;;;;;;;47.53;20.70;;;;;;;-1.58;72.45;100851.89;1672259;84;25788;-78
2020/12/09 04:53:31;;;;;;;44.58;23.00;;;;;;;-1.57;72.79;100854.89;1689001;83;25764;-77
2020/12/09 04:55:59;;;;;;;49.90;22.60;;;;;;;-1.59;72.80;100859.41;1656546;83;26494;-77
2020/12/09 04:58:42;;;;;;;51.30;24.40;;;;;;;-1.60;72.81;100861.19;1637899;84;27334;-79
2020/12/09 05:01:15;;;;;;;41.25;19.27;;;;;;;-1.64;72.87;100854.47;1670161;84;26369;-78
2020/12/09 05:03:51;;;;;;;51.95;22.48;;;;;;;-1.64;72.87;100854.47;1646382;83;26615;-78
2020/12/09 05:06:20;;;;;;;45.75;23.77;;;;;;;-1.68;72.92;100854.77;1690047;83;25652;-78
2020/12/09 05:08:56;;;;;;;48.55;23.27;;;;;;;-1.67;73.01;100853.84;1675210;84;25896;-79
2020/12/09 05:11:26;;;;;;;42.93;20.52;;;;;;;-1.67;73.09;100861.22;1658889;83;27546;-80
2020/12/09 05:13:58;;;;;;;50.28;21.35;;;;;;;-1.65;73.07;100858.52;1646789;85;25851;-78
2020/12/09 05:16:25;;;;;;;;;;;;;;;-1.63;73.12;100857.94;1673527;83;25783;-78
2020/12/09 05:18:59;;;;;;;73.52;34.25;;;;;;;-1.64;73.23;100857.55;1689172;83;26584;-79
2020/12/09 05:21:26;;;;;;;50.88;25.05;;;;;;;-1.64;73.23;100857.55;1638484;83;26585;-80
2020/12/09 05:23:58;;;;;;;52.93;25.80;;;;;;;-1.63;73.44;100861.88;1654016;83;27556;-79
2020/12/09 05:26:30;;;;;;;47.13;23.25;;;;;;;-1.63;73.29;100864.51;1667091;83;25805;-78
2020/12/09 05:29:11;;;;;;;55.23;26.68;;;;;;;-1.64;73.22;100858.88;1688807;82;25958;-79
2020/12/09 05:31:40;;;;;;;53.63;24.67;;;;;;;-1.58;73.23;100865.87;1663564;84;25965;-77
2020/12/09 05:34:24;;;;;;;48.83;24.60;;;;;;;-1.57;73.25;100867.56;1624092;83;25432;-79
2020/12/09 05:36:57;;;;;;;46.15;21.02;;;;;;;-1.56;73.27;100861.34;1666653;83;27044;-79
2020/12/09 05:39:25;;;;;;;47.70;24.92;;;;;;;-1.56;73.27;100861.34;1692895;83;26380;-78
2020/12/09 05:41:53;;;;;;;42.93;22.35;;;;;;;-1.54;73.28;100869.16;1645415;83;25741;-79
2020/12/09 05:44:25;;;;;;;50.60;26.20;;;;;;;-1.53;73.27;100864.25;1665521;83;26472;-78
2020/12/09 05:46:56;;;;;;;44.15;24.72;;;;;;;-1.52;73.33;100858.53;1655478;83;26010;-78
2020/12/09 05:49:30;;;;;;;50.08;24.40;;;;;;;-1.56;73.33;100851.31;1691805;83;30097;-78
2020/12/09 05:52:15;;;;;;;41.13;21.00;;;;;;;-1.56;73.33;100851.31;1665471;83;26013;-78
2020/12/09 05:54:49;;;;;;;52.73;26.23;;;;;;;-1.51;73.29;100858.88;1646038;84;25730;-78
2020/12/09 05:57:19;;;;;;;46.48;22.93;;;;;;;-1.60;73.54;100857.25;1652702;83;25984;-78
2020/12/09 05:59:49;;;;;;;44.60;21.80;;;;;;;-1.60;73.54;100857.25;1654094;83;25912;-79
2020/12/09 06:02:23;;;;;;;53.10;25.80;;;;;;;-1.54;73.47;100870.93;1623178;83;27540;-79
2020/12/09 06:05:01;;;;;;;50.85;25.20;;;;;;;-1.49;73.44;100870.13;1839361;77;25864;-78
2020/12/09 06:07:31;;;;;;;37.43;19.63;;;;;;;-1.55;73.58;100868.77;1764315;80;25832;-78
2020/12/09 06:10:10;;;;;;;40.83;21.43;;;;;;;-1.56;73.50;100873.17;1671732;82;28560;-79
2020/12/09 06:12:59;;;;;;;47.85;25.05;;;;;;;-1.55;73.58;100877.96;1715424;82;25999;-78
2020/12/09 06:15:30;;;;;;;50.20;23.57;;;;;;;-1.55;73.80;100874.02;1754237;81;25753;-78
2020/12/09 06:18:08;;;;;;;47.87;22.80;;;;;;;-1.54;73.69;100888.00;1754080;81;25870;-77
2020/12/09 06:20:39;;;;;;;42.75;21.12;;;;;;;-1.52;73.67;100894.84;1725129;81;25826;-79
2020/12/09 06:23:13;;;;;;;49.18;23.25;;;;;;;-1.49;73.70;100898.55;1723033;82;27644;-79
2020/12/09 06:25:42;;;;;;;46.02;21.00;;;;;;;-1.48;73.69;100894.15;1758395;80;25900;-79
2020/12/09 06:28:18;;;;;;;51.35;25.77;;;;;;;-1.48;73.88;100901.56;1744121;81;26535;-78
2020/12/09 06:30:46;;;;;;;44.15;22.13;;;;;;;-1.48;73.88;100901.56;1710981;81;25933;-79
2020/12/09 06:33:38;;;;;;;46.80;22.98;;;;;;;-1.48;73.64;100908.59;1726400;81;26138;-79
2020/12/09 06:36:12;;;;;;;54.67;28.52;;;;;;;-1.48;73.72;100910.77;1737494;81;27320;-79
2020/12/09 06:38:41;;;;;;;54.25;27.13;;;;;;;-1.49;73.80;100909.06;1746756;81;25766;-78
2020/12/09 06:41:10;;;;;;;50.43;25.30;;;;;;;-1.48;73.77;100918.64;1681432;81;25881;-79
2020/12/09 06:43:49;;;;;;;57.45;26.65;;;;;;;-1.43;73.87;100918.34;1725876;81;25820;-78
2020/12/09 06:46:43;;;;;;;37.20;18.73;;;;;;;-1.34;73.85;100916.38;1785969;79;25742;-78
2020/12/09 06:49:33;;;;;;;52.25;26.62;;;;;;;-1.40;73.79;100904.52;1758090;80;25822;-78
2020/12/09 06:52:11;;;;;;;50.35;22.77;;;;;;;-1.42;73.82;100924.80;1713779;81;27589;-77
2020/12/09 06:54:44;;;;;;;49.55;25.23;;;;;;;-1.39;74.33;100919.81;1657318;83;25748;-79
2020/12/09 06:57:15;;;;;;;51.28;25.85;;;;;;;-1.38;73.82;100914.91;1693565;81;26124;-78
2020/12/09 06:59:49;;;;;;;56.20;27.85;;;;;;;-1.43;73.81;100906.02;1717671;81;26095;-77
2020/12/09 07:02:29;;;;;;;54.45;26.85;;;;;;;-1.41;73.87;100912.01;1643565;83;25897;-78
2020/12/09 07:05:01;;;;;;;56.95;26.65;;;;;;;-1.44;73.92;100917.48;1667969;83;27645;-77
2020/12/09 07:07:49;;;;;;;55.00;25.57;;;;;;;-1.40;73.95;100921.59;1687489;83;25918;-78
2020/12/09 07:10:24;;;;;;;42.15;22.00;;;;;;;-1.40;73.98;100920.73;1703225;83;25814;-78
2020/12/09 07:13:12;;;;;;;44.77;22.30;;;;;;;-1.39;74.14;100920.63;1677627;83;25804;-79
2020/12/09 07:15:47;;;;;;;52.65;25.35;;;;;;;-1.40;73.95;100920.73;1690012;83;25989;-78
2020/12/09 07:18:15;;;;;;;45.70;21.07;;;;;;;-1.40;73.99;100919.42;1704624;83;28399;-79
2020/12/09 07:20:44;;;;;;;53.48;24.07;;;;;;;-1.38;73.96;100912.28;1691600;83;26192;-78
2020/12/09 07:23:13;;;;;;;43.20;22.20;;;;;;;-1.40;73.93;100910.23;1648134;83;25884;-78
2020/12/09 07:25:40;;;;;;;46.37;23.07;;;;;;;-1.41;73.92;100911.19;1701441;83;26027;-78
2020/12/09 07:28:09;;;;;;;45.98;22.48;;;;;;;-1.42;74.09;100909.49;1692596;83;25829;-79
2020/12/09 07:30:39;;;;;;;47.23;24.82;;;;;;;-1.38;74.10;100923.64;1716042;83;27524;-77
2020/12/09 07:33:06;;;;;;;58.40;28.40;;;;;;;-1.42;74.07;100910.81;1631588;83;25850;-78
2020/12/09 07:35:34;;;;;;;45.75;22.48;;;;;;;-1.42;74.05;100913.44;1682877;83;25899;-79
2020/12/09 07:38:02;;;;;;;52.78;25.12;;;;;;;-1.36;74.18;100924.84;1678253;83;25772;-78
2020/12/09 07:40:33;;;;;;;52.20;25.62;;;;;;;-1.36;74.20;100923.53;1683196;83;25917;-78
2020/12/09 07:43:14;;;;;;;50.00;25.52;;;;;;;-1.36;74.24;100919.59;1677982;83;27558;-78
2020/12/09 07:45:45;;;;;;;53.75;27.80;;;;;;;-1.36;74.11;100922.22;1671121;82;26096;-78
2020/12/09 07:48:18;;;;;;;62.93;28.62;;;;;;;-1.36;74.11;100922.22;1684387;82;25876;-78
2020/12/09 07:50:52;;;;;;;48.40;24.67;;;;;;;-1.31;74.30;100920.12;1706071;82;25814;-78
2020/12/09 07:53:21;;;;;;;58.15;28.20;;;;;;;-1.29;74.14;100914.30;1655887;84;25902;-78
2020/12/09 07:55:49;;;;;;;46.88;25.35;;;;;;;-1.26;74.29;100910.16;1687743;84;27716;-78
2020/12/09 07:58:20;;;;;;;50.40;24.92;;;;;;;-1.23;74.27;100909.93;1681413;82;25985;-78
2020/12/09 08:00:48;;;;;;;;;;;;;;;-1.23;74.25;100914.72;1711224;82;25805;-79
2020/12/09 08:03:25;;;;;;;43.90;19.42;;;;;;;-1.24;74.33;100907.77;1666732;82;26486;-78
2020/12/09 08:05:55;;;;;;;44.60;22.15;;;;;;;-1.32;74.20;100906.14;1699938;82;25773;-78
2020/12/09 08:08:27;;;;;;;49.08;23.90;;;;;;;-1.29;74.24;100915.61;1692034;82;27321;-78
2020/12/09 08:11:05;;;;;;;46.80;22.13;;;;;;;-1.26;74.33;100915.41;1636034;84;43851;-76
2020/12/09 08:13:33;;;;;;;43.68;20.10;;;;;;;-1.36;74.27;100906.45;1643917;85;25774;-77
2020/12/09 08:16:11;;;;;;;55.70;24.57;;;;;;;-1.29;74.55;100923.03;1655395;85;25878;-77
2020/12/09 08:18:46;;;;;;;48.87;22.10;;;;;;;-1.28;74.44;100930.45;1640134;86;26509;-76
2020/12/09 08:21:20;;;;;;;47.13;23.90;;;;;;;-1.28;74.48;100933.89;1623449;85;27612;-76
2020/12/09 08:24:12;;;;;;;46.33;21.68;;;;;;;-1.28;74.48;100933.89;1663973;85;26396;-76
2020/12/09 08:26:43;;;;;;;45.55;21.60;;;;;;;-1.29;74.44;100923.49;1658877;85;26150;-77
2020/12/09 08:29:19;;;;;;;45.98;23.90;;;;;;;-1.25;74.55;100927.59;1646352;85;26449;-79
2020/12/09 08:31:46;;;;;;;43.50;20.75;;;;;;;-1.28;74.42;100914.68;1645327;85;25835;-76
2020/12/09 08:34:15;;;;;;;47.45;22.45;;;;;;;-1.32;74.24;100910.08;1636850;85;27568;-76
2020/12/09 08:36:44;;;;;;;54.05;26.27;;;;;;;-1.32;74.24;100910.08;1669440;85;25866;-77
2020/12/09 08:39:14;;;;;;;33.33;16.93;;;;;;;-1.23;74.60;100927.02;1646403;85;26243;-78
2020/12/09 08:41:41;;;;;;;42.88;19.27;;;;;;;-1.23;74.60;100927.02;1627965;85;25995;-78
2020/12/09 08:44:10;;;;;;;51.08;24.72;;;;;;;-1.20;74.66;100935.55;1644735;85;26108;-76
2020/12/09 08:46:38;;;;;;;51.02;26.68;;;;;;;-1.18;74.65;100929.72;1651222;85;27551;-77
2020/12/09 08:49:05;;;;;;;46.58;23.87;;;;;;;-1.18;74.65;100929.72;1652304;85;26251;-77
2020/12/09 08:51:34;;;;;;;52.15;26.17;;;;;;;-1.17;74.51;100920.88;1616751;86;25495;-77
2020/12/09 08:54:07;;;;;;;52.90;24.37;;;;;;;-1.12;74.67;100922.72;1632603;85;26225;-76
2020/12/09 08:56:35;;;;;;;42.75;21.85;;;;;;;-1.12;74.67;100922.72;1670246;85;25697;-77
2020/12/09 08:59:03;;;;;;;50.40;22.70;;;;;;;-1.09;74.34;100925.63;1653190;84;28271;-76
2020/12/09 09:01:37;;;;;;;52.38;23.73;;;;;;;-1.10;74.36;100919.98;1628135;84;25894;-77
2020/12/09 09:04:10;;;;;;;49.27;21.62;;;;;;;-1.10;74.35;100918.66;1657758;85;25758;-76
2020/12/09 09:06:37;;;;;;;49.60;22.02;;;;;;;-1.08;74.53;100910.20;1681825;84;26433;-77
2020/12/09 09:09:06;;;;;;;38.65;18.52;;;;;;;-1.10;74.40;100909.00;1648004;84;26237;-78
2020/12/09 09:11:34;;;;;;;41.42;20.72;;;;;;;-1.12;74.40;100906.95;1627193;85;28453;-78
2020/12/09 09:14:02;;;;;;;50.95;24.47;;;;;;;-1.10;74.57;100911.63;1616755;86;25868;-78
2020/12/09 09:16:30;;;;;;;50.50;25.77;;;;;;;-1.08;74.12;100922.88;1667610;84;26011;-78
2020/12/09 09:18:57;;;;;;;49.85;23.55;;;;;;;-1.07;74.42;100916.66;1640086;85;26473;-79
2020/12/09 09:21:24;;;;;;;51.63;24.12;;;;;;;-1.05;74.36;100922.65;1629171;85;26458;-79
2020/12/09 09:23:54;;;;;;;43.28;21.77;;;;;;;-1.03;74.39;100929.14;1631470;85;27677;-78
2020/12/09 09:26:21;;;;;;;45.20;22.90;;;;;;;-1.02;74.38;100929.02;1670144;84;26222;-79
2020/12/09 09:28:49;;;;;;;38.78;18.07;;;;;;;-1.01;74.35;100919.36;1651652;85;25741;-78
2020/12/09 09:31:16;;;;;;;54.58;24.90;;;;;;;-0.99;74.31;100920.09;1622841;85;25882;-79
2020/12/09 09:33:44;;;;;;;43.50;21.25;;;;;;;-0.99;74.30;100920.94;1637072;85;25899;-78
2020/12/09 09:36:11;;;;;;;45.55;22.98;;;;;;;-0.97;74.27;100913.79;1638362;86;27547;-78
2020/12/09 09:38:39;;;;;;;53.35;25.62;;;;;;;-1.01;74.32;100902.27;1632219;85;26016;-78
2020/12/09 09:41:07;;;;;;;44.75;21.48;;;;;;;-0.93;74.27;100917.03;1654349;85;26166;-78
2020/12/09 09:43:35;;;;;;;41.42;20.68;;;;;;;-0.93;74.13;100903.89;1641923;86;25774;-78
2020/12/09 09:46:03;;;;;;;55.00;25.08;;;;;;;-0.94;74.10;100900.41;1679705;84;25924;-78
2020/12/09 09:48:31;;;;;;;54.63;24.87;;;;;;;-0.91;74.30;100900.67;1601196;86;27340;-77
2020/12/09 09:50:58;;;;;;;54.67;26.37;;;;;;;-0.89;74.21;100909.30;1602755;86;25795;-77
2020/12/09 09:53:26;;;;;;;56.45;25.08;;;;;;;-0.90;74.23;100907.13;1601154;86;26206;-78
2020/12/09 09:55:56;;;;;;;45.38;21.25;;;;;;;-0.87;74.25;100899.52;1631184;86;26166;-78
2020/12/09 09:58:25;;;;;;;43.00;20.60;;;;;;;-0.85;74.12;100897.14;1631127;86;26406;-78
2020/12/09 10:00:52;;;;;;;48.98;22.20;;;;;;;-0.85;74.02;100898.46;1595666;86;28472;-78
2020/12/09 10:03:20;;;;;;;48.80;23.95;;;;;;;-0.85;74.11;100907.66;1623931;86;25841;-77
2020/12/09 10:05:49;;;;;;;61.95;26.00;;;;;;;-0.88;73.97;100894.72;1630309;86;25886;-78
2020/12/09 10:08:18;;;;;;;;;;;;;;;-0.83;74.07;100901.82;1640130;86;26455;-77
2020/12/09 10:10:46;;;;;;;45.88;19.98;;;;;;;-0.81;73.89;100902.55;1626031;86;25622;-77
2020/12/09 10:13:14;;;;;;;53.35;23.83;;;;;;;-0.84;74.00;100897.53;1604640;86;27568;-77
2020/12/09 10:15:42;;;;;;;52.10;23.25;;;;;;;-0.84;74.04;100893.59;1614483;88;25882;-77
2020/12/09 10:18:11;;;;;;;50.28;25.65;;;;;;;-0.83;73.90;100898.34;1645627;86;25790;-77
2020/12/09 10:20:40;;;;;;;61.00;28.25;;;;;;;-0.82;73.92;100901.36;1601127;86;26444;-77
2020/12/09 10:23:09;;;;;;;56.75;26.68;;;;;;;-0.81;73.91;100905.66;1617016;86;25822;-77
2020/12/09 10:25:36;;;;;;;46.18;21.93;;;;;;;-0.75;74.03;100900.45;1665837;84;27640;-78
2020/12/09 10:28:05;;;;;;;48.48;22.00;;;;;;;-0.75;73.83;100900.45;1653606;86;26466;-77
2020/12/09 10:30:34;;;;;;;50.80;25.27;;;;;;;-0.77;73.66;100897.95;1653926;84;25789;-77
2020/12/09 10:33:01;;;;;;;51.95;25.82;;;;;;;-0.82;73.73;100895.63;1657099;84;25860;-77
2020/12/09 10:35:30;;;;;;;60.83;26.87;;;;;;;-0.83;73.70;100902.29;1676493;84;25828;-77
2020/12/09 10:37:59;;;;;;;63.23;28.65;;;;;;;-0.84;73.77;100902.79;1637835;84;28582;-77
2020/12/09 10:40:27;;;;;;;72.67;30.30;;;;;;;-0.81;73.80;100903.02;1656247;84;26122;-77
2020/12/09 10:42:55;;;;;;;55.78;27.50;;;;;;;-0.79;73.80;100901.13;1631822;84;25917;-77
2020/12/09 10:45:22;;;;;;;51.77;26.95;;;;;;;-0.77;73.78;100901.89;1676908;84;25731;-77
2020/12/09 10:47:50;;;;;;;54.05;26.85;;;;;;;-0.76;73.80;100885.14;1630249;86;26054;-77
2020/12/09 10:50:20;;;;;;;47.53;23.10;;;;;;;-0.75;73.63;100884.67;1649535;83;27664;-77
2020/12/09 10:52:48;;;;;;;40.35;21.17;;;;;;;-0.76;74.10;100895.66;1670268;84;25907;-77
2020/12/09 10:55:15;;;;;;;51.63;24.60;;;;;;;-0.74;73.80;100888.50;1658207;85;25733;-77
2020/12/09 10:57:42;;;;;;;49.20;25.97;;;;;;;-0.75;73.76;100888.16;1616499;86;25979;-77
2020/12/09 11:00:11;;;;;;;49.83;24.52;;;;;;;-0.75;73.65;100886.84;1630682;85;25493;-77
2020/12/09 11:02:40;;;;;;;43.58;21.48;;;;;;;-0.73;73.69;100886.26;1658826;85;28684;-77
2020/12/09 11:05:09;;;;;;;49.23;24.95;;;;;;;-0.70;73.61;100889.12;1659831;85;26027;-77
2020/12/09 11:07:37;;;;;;;60.70;28.30;;;;;;;-0.69;73.70;100885.09;1614474;85;25851;-78
2020/12/09 11:10:04;;;;;;;41.08;19.27;;;;;;;-0.67;73.58;100877.92;1641830;85;26500;-78
2020/12/09 11:12:32;;;;;;;50.98;24.90;;;;;;;-0.66;73.17;100873.02;1679943;84;25940;-77
2020/12/09 11:15:00;;;;;;;46.33;20.68;;;;;;;-0.66;73.17;100873.02;1656431;86;27561;-77
2020/12/09 11:17:27;;;;;;;54.63;25.40;;;;;;;-0.67;73.61;100876.61;1628204;84;25828;-77
2020/12/09 11:19:55;;;;;;;57.40;27.73;;;;;;;-0.66;73.54;100880.91;1634115;86;25420;-77
2020/12/09 11:22:22;;;;;;;49.90;24.50;;;;;;;-0.64;73.69;100876.88;1649136;85;25818;-77